sensor_id;sensor_type;location;lat;lon;timestamp;P1;durP1;ratioP1;P2;durP2;ratioP2
39188;SDS011;24915;50.858;4.376;2022-08-14T00:01:08;2.25;;;2.05;;
39188;SDS011;24915;50.858;4.376;2022-08-14T00:03:34;5.05;;;1.92;;
39188;SDS011;24915;50.858;4.376;2022-08-14T00:06:00;9.38;;;2.45;;
39188;SDS011;24915;50.858;4.376;2022-08-14T00:08:27;5.97;;;1.65;;
39188;SDS011;24915;50.858;4.376;2022-08-14T00:10:53;2.92;;;2.10;;
39188;SDS011;24915;50.858;4.376;2022-08-14T00:13:19;2.47;;;2.28;;
39188;SDS011;24915;50.858;4.376;2022-08-14T00:15:47;2.17;;;1.98;;
39188;SDS011;24915;50.858;4.376;2022-08-14T00:18:16;5.95;;;2.00;;
39188;SDS011;24915;50.858;4.376;2022-08-14T00:20:43;4.07;;;2.17;;
39188;SDS011;24915;50.858;4.376;2022-08-14T00:23:10;9.50;;;2.30;;
39188;SDS011;24915;50.858;4.376;2022-08-14T00:25:37;3.42;;;2.22;;
39188;SDS011;24915;50.858;4.376;2022-08-14T00:28:03;5.80;;;2.17;;
39188;SDS011;24915;50.858;4.376;2022-08-14T00:30:33;3.40;;;2.05;;
39188;SDS011;24915;50.858;4.376;2022-08-14T00:32:59;6.05;;;2.42;;
39188;SDS011;24915;50.858;4.376;2022-08-14T00:35:25;6.63;;;2.28;;
39188;SDS011;24915;50.858;4.376;2022-08-14T00:37:50;2.28;;;2.08;;
39188;SDS011;24915;50.858;4.376;2022-08-14T00:40:17;2.00;;;1.90;;
39188;SDS011;24915;50.858;4.376;2022-08-14T00:42:44;3.92;;;1.95;;
39188;SDS011;24915;50.858;4.376;2022-08-14T00:45:11;4.78;;;1.88;;
39188;SDS011;24915;50.858;4.376;2022-08-14T00:47:38;5.03;;;1.95;;
39188;SDS011;24915;50.858;4.376;2022-08-14T00:50:06;6.15;;;2.00;;
39188;SDS011;24915;50.858;4.376;2022-08-14T00:52:34;1.95;;;1.70;;
39188;SDS011;24915;50.858;4.376;2022-08-14T00:55:00;3.60;;;1.75;;
39188;SDS011;24915;50.858;4.376;2022-08-14T00:57:28;8.27;;;1.75;;
39188;SDS011;24915;50.858;4.376;2022-08-14T00:59:55;6.72;;;1.70;;
39188;SDS011;24915;50.858;4.376;2022-08-14T01:02:21;2.17;;;1.70;;
39188;SDS011;24915;50.858;4.376;2022-08-14T01:04:48;2.55;;;2.00;;
39188;SDS011;24915;50.858;4.376;2022-08-14T01:07:16;2.47;;;2.28;;
39188;SDS011;24915;50.858;4.376;2022-08-14T01:09:47;2.80;;;2.00;;
39188;SDS011;24915;50.858;4.376;2022-08-14T01:12:17;7.38;;;2.13;;
39188;SDS011;24915;50.858;4.376;2022-08-14T01:14:43;4.57;;;1.98;;
39188;SDS011;24915;50.858;4.376;2022-08-14T01:17:12;2.63;;;2.42;;
39188;SDS011;24915;50.858;4.376;2022-08-14T01:19:38;3.30;;;1.88;;
39188;SDS011;24915;50.858;4.376;2022-08-14T01:22:22;7.88;;;1.90;;
39188;SDS011;24915;50.858;4.376;2022-08-14T01:24:48;9.27;;;2.30;;
39188;SDS011;24915;50.858;4.376;2022-08-14T01:27:14;5.68;;;1.90;;
39188;SDS011;24915;50.858;4.376;2022-08-14T01:29:44;6.53;;;2.13;;
39188;SDS011;24915;50.858;4.376;2022-08-14T01:32:11;4.65;;;1.98;;
39188;SDS011;24915;50.858;4.376;2022-08-14T01:34:37;5.90;;;2.05;;
39188;SDS011;24915;50.858;4.376;2022-08-14T01:37:03;2.08;;;1.90;;
39188;SDS011;24915;50.858;4.376;2022-08-14T01:39:28;4.68;;;1.88;;
39188;SDS011;24915;50.858;4.376;2022-08-14T01:41:55;7.45;;;1.90;;
39188;SDS011;24915;50.858;4.376;2022-08-14T01:44:24;2.67;;;1.90;;
39188;SDS011;24915;50.858;4.376;2022-08-14T01:46:55;3.25;;;1.90;;
39188;SDS011;24915;50.858;4.376;2022-08-14T01:49:22;4.60;;;2.00;;
39188;SDS011;24915;50.858;4.376;2022-08-14T01:51:49;3.50;;;1.83;;
39188;SDS011;24915;50.858;4.376;2022-08-14T01:54:22;6.03;;;2.33;;
39188;SDS011;24915;50.858;4.376;2022-08-14T01:56:52;5.57;;;2.10;;
39188;SDS011;24915;50.858;4.376;2022-08-14T01:59:30;3.85;;;1.95;;
39188;SDS011;24915;50.858;4.376;2022-08-14T02:01:58;4.57;;;2.10;;
39188;SDS011;24915;50.858;4.376;2022-08-14T02:04:32;1.90;;;1.58;;
39188;SDS011;24915;50.858;4.376;2022-08-14T02:06:59;2.28;;;1.90;;
39188;SDS011;24915;50.858;4.376;2022-08-14T02:09:27;3.15;;;1.90;;
39188;SDS011;24915;50.858;4.376;2022-08-14T02:11:59;2.13;;;1.88;;
39188;SDS011;24915;50.858;4.376;2022-08-14T02:14:25;2.63;;;1.98;;
39188;SDS011;24915;50.858;4.376;2022-08-14T02:16:52;4.05;;;1.90;;
39188;SDS011;24915;50.858;4.376;2022-08-14T02:19:25;3.30;;;1.80;;
39188;SDS011;24915;50.858;4.376;2022-08-14T02:21:53;3.50;;;1.90;;
39188;SDS011;24915;50.858;4.376;2022-08-14T02:24:22;4.55;;;1.92;;
39188;SDS011;24915;50.858;4.376;2022-08-14T02:26:50;2.08;;;1.73;;
39188;SDS011;24915;50.858;4.376;2022-08-14T02:29:18;3.42;;;1.85;;
39188;SDS011;24915;50.858;4.376;2022-08-14T02:31:51;2.85;;;2.20;;
39188;SDS011;24915;50.858;4.376;2022-08-14T02:34:28;2.70;;;2.22;;
39188;SDS011;24915;50.858;4.376;2022-08-14T02:36:57;4.07;;;2.08;;
39188;SDS011;24915;50.858;4.376;2022-08-14T02:39:27;6.15;;;2.00;;
39188;SDS011;24915;50.858;4.376;2022-08-14T02:41:57;6.43;;;2.40;;
39188;SDS011;24915;50.858;4.376;2022-08-14T02:44:23;3.67;;;2.00;;
39188;SDS011;24915;50.858;4.376;2022-08-14T02:46:50;5.95;;;2.05;;
39188;SDS011;24915;50.858;4.376;2022-08-14T02:49:17;3.58;;;1.90;;
39188;SDS011;24915;50.858;4.376;2022-08-14T02:54:17;2.20;;;2.10;;
39188;SDS011;24915;50.858;4.376;2022-08-14T02:56:42;2.25;;;2.10;;
39188;SDS011;24915;50.858;4.376;2022-08-14T02:59:08;3.85;;;2.40;;
39188;SDS011;24915;50.858;4.376;2022-08-14T03:01:35;5.35;;;3.00;;
39188;SDS011;24915;50.858;4.376;2022-08-14T03:04:01;3.10;;;2.72;;
39188;SDS011;24915;50.858;4.376;2022-08-14T03:06:30;5.07;;;2.63;;
39188;SDS011;24915;50.858;4.376;2022-08-14T03:08:56;5.90;;;2.60;;
39188;SDS011;24915;50.858;4.376;2022-08-14T03:11:23;6.55;;;2.45;;
39188;SDS011;24915;50.858;4.376;2022-08-14T03:13:50;3.05;;;2.72;;
39188;SDS011;24915;50.858;4.376;2022-08-14T03:16:18;3.53;;;2.88;;
39188;SDS011;24915;50.858;4.376;2022-08-14T03:18:48;6.47;;;2.70;;
39188;SDS011;24915;50.858;4.376;2022-08-14T03:21:17;3.15;;;2.67;;
39188;SDS011;24915;50.858;4.376;2022-08-14T03:23:47;2.40;;;2.20;;
39188;SDS011;24915;50.858;4.376;2022-08-14T03:26:14;2.85;;;2.22;;
39188;SDS011;24915;50.858;4.376;2022-08-14T03:28:42;4.57;;;2.10;;
39188;SDS011;24915;50.858;4.376;2022-08-14T03:31:09;3.22;;;1.92;;
39188;SDS011;24915;50.858;4.376;2022-08-14T03:33:36;6.43;;;1.95;;
39188;SDS011;24915;50.858;4.376;2022-08-14T03:36:05;4.22;;;1.67;;
39188;SDS011;24915;50.858;4.376;2022-08-14T03:38:37;2.88;;;1.80;;
39188;SDS011;24915;50.858;4.376;2022-08-14T03:41:07;2.42;;;1.85;;
39188;SDS011;24915;50.858;4.376;2022-08-14T03:43:38;3.28;;;2.00;;
39188;SDS011;24915;50.858;4.376;2022-08-14T03:46:04;3.28;;;1.98;;
39188;SDS011;24915;50.858;4.376;2022-08-14T03:48:30;3.33;;;1.65;;
39188;SDS011;24915;50.858;4.376;2022-08-14T03:50:56;5.47;;;1.95;;
39188;SDS011;24915;50.858;4.376;2022-08-14T03:53:22;7.28;;;2.15;;
39188;SDS011;24915;50.858;4.376;2022-08-14T03:55:47;7.18;;;2.47;;
39188;SDS011;24915;50.858;4.376;2022-08-14T03:58:13;2.50;;;2.30;;
39188;SDS011;24915;50.858;4.376;2022-08-14T04:00:39;4.75;;;2.38;;
39188;SDS011;24915;50.858;4.376;2022-08-14T04:03:07;7.32;;;2.58;;
39188;SDS011;24915;50.858;4.376;2022-08-14T04:05:34;6.93;;;2.70;;
39188;SDS011;24915;50.858;4.376;2022-08-14T04:08:03;5.15;;;2.42;;
39188;SDS011;24915;50.858;4.376;2022-08-14T04:10:30;3.05;;;2.35;;
39188;SDS011;24915;50.858;4.376;2022-08-14T04:12:55;4.38;;;2.50;;
39188;SDS011;24915;50.858;4.376;2022-08-14T04:15:25;6.55;;;2.22;;
39188;SDS011;24915;50.858;4.376;2022-08-14T04:17:51;3.53;;;2.50;;
39188;SDS011;24915;50.858;4.376;2022-08-14T04:20:18;2.22;;;2.03;;
39188;SDS011;24915;50.858;4.376;2022-08-14T04:22:44;2.55;;;2.15;;
39188;SDS011;24915;50.858;4.376;2022-08-14T04:25:10;4.18;;;2.13;;
39188;SDS011;24915;50.858;4.376;2022-08-14T04:27:36;8.45;;;2.28;;
39188;SDS011;24915;50.858;4.376;2022-08-14T04:30:05;7.72;;;1.92;;
39188;SDS011;24915;50.858;4.376;2022-08-14T04:32:31;4.03;;;2.05;;
39188;SDS011;24915;50.858;4.376;2022-08-14T04:34:58;4.45;;;2.05;;
39188;SDS011;24915;50.858;4.376;2022-08-14T04:37:24;4.15;;;2.10;;
39188;SDS011;24915;50.858;4.376;2022-08-14T04:40:09;4.65;;;2.10;;
39188;SDS011;24915;50.858;4.376;2022-08-14T04:42:54;3.78;;;2.00;;
39188;SDS011;24915;50.858;4.376;2022-08-14T04:45:39;6.63;;;2.13;;
39188;SDS011;24915;50.858;4.376;2022-08-14T04:48:05;3.45;;;1.60;;
39188;SDS011;24915;50.858;4.376;2022-08-14T04:50:39;3.42;;;1.88;;
39188;SDS011;24915;50.858;4.376;2022-08-14T04:53:08;2.78;;;1.88;;
39188;SDS011;24915;50.858;4.376;2022-08-14T04:55:36;2.78;;;1.98;;
39188;SDS011;24915;50.858;4.376;2022-08-14T04:58:03;5.25;;;2.05;;
39188;SDS011;24915;50.858;4.376;2022-08-14T05:00:29;3.55;;;2.10;;
39188;SDS011;24915;50.858;4.376;2022-08-14T05:02:55;3.13;;;2.03;;
39188;SDS011;24915;50.858;4.376;2022-08-14T05:05:22;3.67;;;2.25;;
39188;SDS011;24915;50.858;4.376;2022-08-14T05:07:50;4.47;;;2.30;;
39188;SDS011;24915;50.858;4.376;2022-08-14T05:10:16;6.40;;;2.28;;
39188;SDS011;24915;50.858;4.376;2022-08-14T05:12:48;5.25;;;2.45;;
39188;SDS011;24915;50.858;4.376;2022-08-14T05:15:14;5.53;;;2.55;;
39188;SDS011;24915;50.858;4.376;2022-08-14T05:17:40;4.85;;;2.60;;
39188;SDS011;24915;50.858;4.376;2022-08-14T05:20:07;2.17;;;1.98;;
39188;SDS011;24915;50.858;4.376;2022-08-14T05:22:33;4.03;;;2.13;;
39188;SDS011;24915;50.858;4.376;2022-08-14T05:24:59;2.92;;;2.08;;
39188;SDS011;24915;50.858;4.376;2022-08-14T05:27:26;6.72;;;2.78;;
39188;SDS011;24915;50.858;4.376;2022-08-14T05:29:53;4.53;;;2.22;;
39188;SDS011;24915;50.858;4.376;2022-08-14T05:32:19;3.85;;;2.30;;
39188;SDS011;24915;50.858;4.376;2022-08-14T05:34:45;6.47;;;2.28;;
39188;SDS011;24915;50.858;4.376;2022-08-14T05:37:11;2.40;;;2.20;;
39188;SDS011;24915;50.858;4.376;2022-08-14T05:39:38;4.10;;;2.45;;
39188;SDS011;24915;50.858;4.376;2022-08-14T05:42:05;8.00;;;2.03;;
39188;SDS011;24915;50.858;4.376;2022-08-14T05:44:32;5.43;;;1.90;;
39188;SDS011;24915;50.858;4.376;2022-08-14T05:46:58;3.78;;;1.80;;
39188;SDS011;24915;50.858;4.376;2022-08-14T05:49:23;3.13;;;1.92;;
39188;SDS011;24915;50.858;4.376;2022-08-14T05:51:49;3.42;;;1.83;;
39188;SDS011;24915;50.858;4.376;2022-08-14T05:54:15;3.78;;;1.95;;
39188;SDS011;24915;50.858;4.376;2022-08-14T05:56:41;3.38;;;2.00;;
39188;SDS011;24915;50.858;4.376;2022-08-14T05:59:07;2.28;;;1.77;;
39188;SDS011;24915;50.858;4.376;2022-08-14T06:01:33;4.65;;;1.60;;
39188;SDS011;24915;50.858;4.376;2022-08-14T06:03:58;3.38;;;2.00;;
39188;SDS011;24915;50.858;4.376;2022-08-14T06:06:24;4.28;;;1.83;;
39188;SDS011;24915;50.858;4.376;2022-08-14T06:08:50;2.40;;;2.10;;
39188;SDS011;24915;50.858;4.376;2022-08-14T06:11:15;1.88;;;1.70;;
39188;SDS011;24915;50.858;4.376;2022-08-14T06:13:41;3.95;;;1.92;;
39188;SDS011;24915;50.858;4.376;2022-08-14T06:16:08;7.00;;;2.03;;
39188;SDS011;24915;50.858;4.376;2022-08-14T06:18:34;4.72;;;1.80;;
39188;SDS011;24915;50.858;4.376;2022-08-14T06:21:01;2.58;;;1.80;;
39188;SDS011;24915;50.858;4.376;2022-08-14T06:23:27;6.90;;;2.00;;
39188;SDS011;24915;50.858;4.376;2022-08-14T06:25:53;4.95;;;1.80;;
39188;SDS011;24915;50.858;4.376;2022-08-14T06:28:19;7.70;;;2.00;;
39188;SDS011;24915;50.858;4.376;2022-08-14T06:30:47;2.42;;;2.22;;
39188;SDS011;24915;50.858;4.376;2022-08-14T06:33:13;4.43;;;2.30;;
39188;SDS011;24915;50.858;4.376;2022-08-14T06:35:40;6.95;;;2.00;;
39188;SDS011;24915;50.858;4.376;2022-08-14T06:38:06;13.52;;;2.80;;
39188;SDS011;24915;50.858;4.376;2022-08-14T06:40:32;3.67;;;2.40;;
39188;SDS011;24915;50.858;4.376;2022-08-14T06:43:07;6.65;;;2.55;;
39188;SDS011;24915;50.858;4.376;2022-08-14T06:45:34;3.38;;;3.08;;
39188;SDS011;24915;50.858;4.376;2022-08-14T06:48:01;5.75;;;2.65;;
39188;SDS011;24915;50.858;4.376;2022-08-14T06:50:28;4.07;;;2.80;;
39188;SDS011;24915;50.858;4.376;2022-08-14T06:52:56;3.58;;;2.83;;
39188;SDS011;24915;50.858;4.376;2022-08-14T06:55:22;5.05;;;2.83;;
39188;SDS011;24915;50.858;4.376;2022-08-14T06:57:49;6.32;;;2.80;;
39188;SDS011;24915;50.858;4.376;2022-08-14T07:00:20;6.45;;;2.90;;
39188;SDS011;24915;50.858;4.376;2022-08-14T07:02:47;5.47;;;2.95;;
39188;SDS011;24915;50.858;4.376;2022-08-14T07:05:32;5.65;;;2.90;;
39188;SDS011;24915;50.858;4.376;2022-08-14T07:08:29;4.03;;;3.28;;
39188;SDS011;24915;50.858;4.376;2022-08-14T07:13:23;3.33;;;2.50;;
39188;SDS011;24915;50.858;4.376;2022-08-14T07:15:50;7.70;;;2.83;;
39188;SDS011;24915;50.858;4.376;2022-08-14T07:20:47;3.15;;;2.30;;
39188;SDS011;24915;50.858;4.376;2022-08-14T07:23:14;4.53;;;2.60;;
39188;SDS011;24915;50.858;4.376;2022-08-14T07:25:40;4.25;;;2.40;;
39188;SDS011;24915;50.858;4.376;2022-08-14T07:28:18;2.33;;;2.22;;
39188;SDS011;24915;50.858;4.376;2022-08-14T07:30:48;3.42;;;2.38;;
39188;SDS011;24915;50.858;4.376;2022-08-14T07:33:16;2.60;;;2.40;;
39188;SDS011;24915;50.858;4.376;2022-08-14T07:35:41;2.53;;;2.33;;
39188;SDS011;24915;50.858;4.376;2022-08-14T07:38:15;3.90;;;2.35;;
39188;SDS011;24915;50.858;4.376;2022-08-14T07:40:42;4.93;;;2.60;;
39188;SDS011;24915;50.858;4.376;2022-08-14T07:43:08;5.85;;;2.70;;
39188;SDS011;24915;50.858;4.376;2022-08-14T07:45:33;4.45;;;2.33;;
39188;SDS011;24915;50.858;4.376;2022-08-14T07:48:00;2.20;;;2.08;;
39188;SDS011;24915;50.858;4.376;2022-08-14T07:50:25;8.07;;;2.80;;
39188;SDS011;24915;50.858;4.376;2022-08-14T07:52:51;3.90;;;1.90;;
39188;SDS011;24915;50.858;4.376;2022-08-14T07:55:17;4.60;;;1.88;;
39188;SDS011;24915;50.858;4.376;2022-08-14T07:57:44;5.85;;;1.98;;
39188;SDS011;24915;50.858;4.376;2022-08-14T08:00:14;3.47;;;1.52;;
39188;SDS011;24915;50.858;4.376;2022-08-14T08:02:43;3.50;;;1.85;;
39188;SDS011;24915;50.858;4.376;2022-08-14T08:05:10;5.38;;;1.60;;
39188;SDS011;24915;50.858;4.376;2022-08-14T08:07:38;2.17;;;1.65;;
39188;SDS011;24915;50.858;4.376;2022-08-14T08:10:09;6.68;;;1.75;;
39188;SDS011;24915;50.858;4.376;2022-08-14T08:13:07;3.83;;;1.80;;
39188;SDS011;24915;50.858;4.376;2022-08-14T08:15:43;2.00;;;1.75;;
39188;SDS011;24915;50.858;4.376;2022-08-14T08:18:11;4.88;;;1.75;;
39188;SDS011;24915;50.858;4.376;2022-08-14T08:20:56;2.72;;;1.52;;
39188;SDS011;24915;50.858;4.376;2022-08-14T08:23:23;5.70;;;1.88;;
39188;SDS011;24915;50.858;4.376;2022-08-14T08:25:50;4.82;;;1.55;;
39188;SDS011;24915;50.858;4.376;2022-08-14T08:28:21;1.83;;;1.65;;
39188;SDS011;24915;50.858;4.376;2022-08-14T08:30:56;4.72;;;1.70;;
39188;SDS011;24915;50.858;4.376;2022-08-14T08:33:25;2.92;;;1.50;;
39188;SDS011;24915;50.858;4.376;2022-08-14T08:35:53;1.98;;;1.65;;
39188;SDS011;24915;50.858;4.376;2022-08-14T08:38:24;4.43;;;1.70;;
39188;SDS011;24915;50.858;4.376;2022-08-14T08:40:52;2.38;;;1.60;;
39188;SDS011;24915;50.858;4.376;2022-08-14T08:45:52;3.30;;;1.40;;
39188;SDS011;24915;50.858;4.376;2022-08-14T08:48:19;3.80;;;1.75;;
39188;SDS011;24915;50.858;4.376;2022-08-14T08:50:48;4.45;;;1.40;;
39188;SDS011;24915;50.858;4.376;2022-08-14T08:53:14;4.15;;;1.45;;
39188;SDS011;24915;50.858;4.376;2022-08-14T08:55:41;5.68;;;1.60;;
39188;SDS011;24915;50.858;4.376;2022-08-14T08:58:10;2.42;;;1.40;;
39188;SDS011;24915;50.858;4.376;2022-08-14T09:00:42;3.17;;;1.30;;
39188;SDS011;24915;50.858;4.376;2022-08-14T09:03:12;1.45;;;1.20;;
39188;SDS011;24915;50.858;4.376;2022-08-14T09:06:14;3.97;;;1.30;;
39188;SDS011;24915;50.858;4.376;2022-08-14T09:08:34;2.75;;;1.48;;
39188;SDS011;24915;50.858;4.376;2022-08-14T09:11:03;1.60;;;1.45;;
39188;SDS011;24915;50.858;4.376;2022-08-14T09:13:30;3.20;;;1.40;;
39188;SDS011;24915;50.858;4.376;2022-08-14T09:15:56;2.47;;;1.83;;
39188;SDS011;24915;50.858;4.376;2022-08-14T09:18:23;2.22;;;1.63;;
39188;SDS011;24915;50.858;4.376;2022-08-14T09:20:49;2.72;;;1.83;;
39188;SDS011;24915;50.858;4.376;2022-08-14T09:23:18;1.80;;;1.70;;
39188;SDS011;24915;50.858;4.376;2022-08-14T09:25:45;4.95;;;1.83;;
39188;SDS011;24915;50.858;4.376;2022-08-14T09:28:14;2.08;;;1.40;;
39188;SDS011;24915;50.858;4.376;2022-08-14T09:30:42;1.77;;;1.30;;
39188;SDS011;24915;50.858;4.376;2022-08-14T09:33:36;4.03;;;1.40;;
39188;SDS011;24915;50.858;4.376;2022-08-14T09:47:42;2.08;;;1.30;;
39188;SDS011;24915;50.858;4.376;2022-08-14T09:50:30;4.32;;;1.40;;
39188;SDS011;24915;50.858;4.376;2022-08-14T09:53:07;2.58;;;1.50;;
39188;SDS011;24915;50.858;4.376;2022-08-14T09:55:34;1.77;;;1.38;;
39188;SDS011;24915;50.858;4.376;2022-08-14T09:58:12;4.30;;;1.50;;
39188;SDS011;24915;50.858;4.376;2022-08-14T10:03:09;2.65;;;1.70;;
39188;SDS011;24915;50.858;4.376;2022-08-14T10:05:35;1.80;;;1.70;;
39188;SDS011;24915;50.858;4.376;2022-08-14T10:08:02;2.70;;;1.55;;
39188;SDS011;24915;50.858;4.376;2022-08-14T10:12:57;2.85;;;1.48;;
39188;SDS011;24915;50.858;4.376;2022-08-14T10:15:26;2.03;;;1.40;;
39188;SDS011;24915;50.858;4.376;2022-08-14T10:18:10;2.92;;;1.40;;
39188;SDS011;24915;50.858;4.376;2022-08-14T10:20:51;6.57;;;1.50;;
39188;SDS011;24915;50.858;4.376;2022-08-14T10:23:22;1.65;;;1.40;;
39188;SDS011;24915;50.858;4.376;2022-08-14T10:25:50;3.92;;;1.50;;
39188;SDS011;24915;50.858;4.376;2022-08-14T10:28:17;2.03;;;1.30;;
39188;SDS011;24915;50.858;4.376;2022-08-14T10:30:45;4.05;;;1.38;;
39188;SDS011;24915;50.858;4.376;2022-08-14T10:33:27;3.45;;;1.85;;
39188;SDS011;24915;50.858;4.376;2022-08-14T10:35:55;4.90;;;2.20;;
39188;SDS011;24915;50.858;4.376;2022-08-14T10:38:29;3.10;;;2.90;;
39188;SDS011;24915;50.858;4.376;2022-08-14T10:41:17;5.05;;;3.47;;
39188;SDS011;24915;50.858;4.376;2022-08-14T10:43:43;2.75;;;1.50;;
39188;SDS011;24915;50.858;4.376;2022-08-14T10:46:36;4.25;;;1.80;;
39188;SDS011;24915;50.858;4.376;2022-08-14T10:49:20;1.88;;;1.30;;
39188;SDS011;24915;50.858;4.376;2022-08-14T10:52:07;6.35;;;1.30;;
39188;SDS011;24915;50.858;4.376;2022-08-14T10:54:36;2.28;;;1.17;;
39188;SDS011;24915;50.858;4.376;2022-08-14T10:57:16;1.48;;;1.13;;
39188;SDS011;24915;50.858;4.376;2022-08-14T10:59:51;3.05;;;1.35;;
39188;SDS011;24915;50.858;4.376;2022-08-14T11:05:07;3.92;;;1.15;;
39188;SDS011;24915;50.858;4.376;2022-08-14T11:07:37;3.22;;;1.10;;
39188;SDS011;24915;50.858;4.376;2022-08-14T11:12:38;4.22;;;1.10;;
39188;SDS011;24915;50.858;4.376;2022-08-14T11:15:10;3.35;;;1.20;;
39188;SDS011;24915;50.858;4.376;2022-08-14T11:17:36;1.55;;;1.33;;
39188;SDS011;24915;50.858;4.376;2022-08-14T11:20:04;4.13;;;1.40;;
39188;SDS011;24915;50.858;4.376;2022-08-14T11:22:32;7.30;;;1.52;;
39188;SDS011;24915;50.858;4.376;2022-08-14T11:25:02;1.88;;;1.23;;
39188;SDS011;24915;50.858;4.376;2022-08-14T11:27:31;1.50;;;1.40;;
39188;SDS011;24915;50.858;4.376;2022-08-14T11:30:07;1.80;;;1.20;;
39188;SDS011;24915;50.858;4.376;2022-08-14T11:32:35;3.53;;;1.48;;
39188;SDS011;24915;50.858;4.376;2022-08-14T11:35:03;5.78;;;1.40;;
39188;SDS011;24915;50.858;4.376;2022-08-14T11:37:29;3.25;;;1.30;;
39188;SDS011;24915;50.858;4.376;2022-08-14T11:40:01;3.20;;;1.10;;
39188;SDS011;24915;50.858;4.376;2022-08-14T11:42:28;3.05;;;1.50;;
39188;SDS011;24915;50.858;4.376;2022-08-14T11:44:58;2.63;;;1.20;;
39188;SDS011;24915;50.858;4.376;2022-08-14T11:47:30;2.35;;;1.30;;
39188;SDS011;24915;50.858;4.376;2022-08-14T11:49:56;2.60;;;1.20;;
39188;SDS011;24915;50.858;4.376;2022-08-14T11:52:31;4.85;;;1.40;;
39188;SDS011;24915;50.858;4.376;2022-08-14T11:55:01;5.15;;;1.30;;
39188;SDS011;24915;50.858;4.376;2022-08-14T11:57:31;2.78;;;1.10;;
39188;SDS011;24915;50.858;4.376;2022-08-14T12:00:04;1.60;;;1.50;;
39188;SDS011;24915;50.858;4.376;2022-08-14T12:02:32;2.00;;;1.30;;
39188;SDS011;24915;50.858;4.376;2022-08-14T12:04:58;1.95;;;1.38;;
39188;SDS011;24915;50.858;4.376;2022-08-14T12:07:24;2.67;;;1.08;;
39188;SDS011;24915;50.858;4.376;2022-08-14T12:09:53;1.10;;;1.00;;
39188;SDS011;24915;50.858;4.376;2022-08-14T12:12:21;2.28;;;1.23;;
39188;SDS011;24915;50.858;4.376;2022-08-14T12:17:20;2.35;;;1.00;;
39188;SDS011;24915;50.858;4.376;2022-08-14T12:19:50;1.48;;;1.27;;
39188;SDS011;24915;50.858;4.376;2022-08-14T12:22:35;2.83;;;1.00;;
39188;SDS011;24915;50.858;4.376;2022-08-14T12:25:10;3.05;;;1.30;;
39188;SDS011;24915;50.858;4.376;2022-08-14T12:27:41;1.38;;;1.10;;
39188;SDS011;24915;50.858;4.376;2022-08-14T12:30:11;3.20;;;1.10;;
39188;SDS011;24915;50.858;4.376;2022-08-14T12:32:38;5.35;;;1.10;;
39188;SDS011;24915;50.858;4.376;2022-08-14T12:35:05;1.45;;;1.20;;
39188;SDS011;24915;50.858;4.376;2022-08-14T12:37:33;1.20;;;1.10;;
39188;SDS011;24915;50.858;4.376;2022-08-14T12:40:10;3.58;;;1.10;;
39188;SDS011;24915;50.858;4.376;2022-08-14T12:42:38;2.80;;;1.10;;
39188;SDS011;24915;50.858;4.376;2022-08-14T12:45:05;3.50;;;1.33;;
39188;SDS011;24915;50.858;4.376;2022-08-14T12:47:31;3.53;;;1.00;;
39188;SDS011;24915;50.858;4.376;2022-08-14T12:49:58;2.15;;;0.93;;
39188;SDS011;24915;50.858;4.376;2022-08-14T12:52:31;1.25;;;0.98;;
39188;SDS011;24915;50.858;4.376;2022-08-14T12:55:03;2.72;;;1.20;;
39188;SDS011;24915;50.858;4.376;2022-08-14T12:57:33;1.17;;;1.10;;
39188;SDS011;24915;50.858;4.376;2022-08-14T13:00:06;2.65;;;1.00;;
39188;SDS011;24915;50.858;4.376;2022-08-14T13:02:51;1.02;;;0.93;;
39188;SDS011;24915;50.858;4.376;2022-08-14T13:05:23;2.38;;;1.02;;
39188;SDS011;24915;50.858;4.376;2022-08-14T13:07:50;2.88;;;1.13;;
39188;SDS011;24915;50.858;4.376;2022-08-14T13:10:17;3.85;;;1.00;;
39188;SDS011;24915;50.858;4.376;2022-08-14T13:12:46;5.50;;;0.98;;
39188;SDS011;24915;50.858;4.376;2022-08-14T13:15:13;2.25;;;1.50;;
39188;SDS011;24915;50.858;4.376;2022-08-14T13:20:06;4.10;;;1.10;;
39188;SDS011;24915;50.858;4.376;2022-08-14T13:22:35;3.78;;;1.20;;
39188;SDS011;24915;50.858;4.376;2022-08-14T13:25:02;1.10;;;1.10;;
39188;SDS011;24915;50.858;4.376;2022-08-14T13:27:29;1.73;;;1.00;;
39188;SDS011;24915;50.858;4.376;2022-08-14T13:29:58;1.30;;;1.20;;
39188;SDS011;24915;50.858;4.376;2022-08-14T13:32:28;2.25;;;1.10;;
39188;SDS011;24915;50.858;4.376;2022-08-14T13:34:54;1.20;;;0.98;;
39188;SDS011;24915;50.858;4.376;2022-08-14T13:37:22;1.42;;;1.15;;
39188;SDS011;24915;50.858;4.376;2022-08-14T13:39:49;6.28;;;1.20;;
39188;SDS011;24915;50.858;4.376;2022-08-14T13:42:17;4.03;;;1.20;;
39188;SDS011;24915;50.858;4.376;2022-08-14T13:44:47;3.28;;;0.98;;
39188;SDS011;24915;50.858;4.376;2022-08-14T13:47:15;1.85;;;1.00;;
39188;SDS011;24915;50.858;4.376;2022-08-14T13:49:47;1.08;;;0.98;;
39188;SDS011;24915;50.858;4.376;2022-08-14T13:52:15;2.00;;;1.10;;
39188;SDS011;24915;50.858;4.376;2022-08-14T13:54:46;1.88;;;1.20;;
39188;SDS011;24915;50.858;4.376;2022-08-14T13:57:14;3.72;;;1.27;;
39188;SDS011;24915;50.858;4.376;2022-08-14T13:59:48;1.88;;;1.20;;
39188;SDS011;24915;50.858;4.376;2022-08-14T14:02:15;1.92;;;1.50;;
39188;SDS011;24915;50.858;4.376;2022-08-14T14:04:44;3.95;;;1.05;;
39188;SDS011;24915;50.858;4.376;2022-08-14T14:07:11;1.33;;;1.20;;
39188;SDS011;24915;50.858;4.376;2022-08-14T14:09:42;1.05;;;1.00;;
39188;SDS011;24915;50.858;4.376;2022-08-14T14:12:09;3.13;;;1.45;;
39188;SDS011;24915;50.858;4.376;2022-08-14T14:14:37;2.03;;;1.10;;
39188;SDS011;24915;50.858;4.376;2022-08-14T14:17:04;1.73;;;1.10;;
39188;SDS011;24915;50.858;4.376;2022-08-14T14:19:31;3.00;;;1.23;;
39188;SDS011;24915;50.858;4.376;2022-08-14T14:22:00;2.33;;;1.10;;
39188;SDS011;24915;50.858;4.376;2022-08-14T14:24:27;1.25;;;1.10;;
39188;SDS011;24915;50.858;4.376;2022-08-14T14:26:54;2.85;;;1.17;;
39188;SDS011;24915;50.858;4.376;2022-08-14T14:29:31;3.35;;;1.40;;
39188;SDS011;24915;50.858;4.376;2022-08-14T14:31:59;3.15;;;1.17;;
39188;SDS011;24915;50.858;4.376;2022-08-14T14:34:26;1.98;;;1.27;;
39188;SDS011;24915;50.858;4.376;2022-08-14T14:36:53;1.92;;;1.10;;
39188;SDS011;24915;50.858;4.376;2022-08-14T14:39:21;2.65;;;1.02;;
39188;SDS011;24915;50.858;4.376;2022-08-14T14:41:52;1.55;;;1.10;;
39188;SDS011;24915;50.858;4.376;2022-08-14T14:44:21;1.52;;;1.25;;
39188;SDS011;24915;50.858;4.376;2022-08-14T14:46:49;2.65;;;1.27;;
39188;SDS011;24915;50.858;4.376;2022-08-14T14:49:15;1.90;;;1.33;;
39188;SDS011;24915;50.858;4.376;2022-08-14T14:51:45;5.07;;;1.40;;
39188;SDS011;24915;50.858;4.376;2022-08-14T14:54:11;2.95;;;1.50;;
39188;SDS011;24915;50.858;4.376;2022-08-14T14:56:39;1.52;;;1.40;;
39188;SDS011;24915;50.858;4.376;2022-08-14T14:59:07;4.93;;;1.30;;
39188;SDS011;24915;50.858;4.376;2022-08-14T15:01:37;2.53;;;1.38;;
39188;SDS011;24915;50.858;4.376;2022-08-14T15:04:04;2.00;;;1.83;;
39188;SDS011;24915;50.858;4.376;2022-08-14T15:06:33;5.70;;;1.70;;
39188;SDS011;24915;50.858;4.376;2022-08-14T15:09:00;2.78;;;1.30;;
39188;SDS011;24915;50.858;4.376;2022-08-14T15:11:27;3.55;;;1.45;;
39188;SDS011;24915;50.858;4.376;2022-08-14T15:13:53;3.95;;;1.33;;
39188;SDS011;24915;50.858;4.376;2022-08-14T15:16:19;2.78;;;1.20;;
39188;SDS011;24915;50.858;4.376;2022-08-14T15:18:45;3.60;;;1.40;;
39188;SDS011;24915;50.858;4.376;2022-08-14T15:21:12;4.40;;;1.45;;
39188;SDS011;24915;50.858;4.376;2022-08-14T15:23:38;4.03;;;1.55;;
39188;SDS011;24915;50.858;4.376;2022-08-14T15:26:05;2.70;;;1.65;;
39188;SDS011;24915;50.858;4.376;2022-08-14T15:28:31;1.52;;;1.42;;
39188;SDS011;24915;50.858;4.376;2022-08-14T15:31:00;1.60;;;1.50;;
39188;SDS011;24915;50.858;4.376;2022-08-14T15:33:28;3.63;;;1.40;;
39188;SDS011;24915;50.858;4.376;2022-08-14T15:36:13;1.88;;;1.38;;